Tiempo atmosférico en la estación meteorológica de Lanaja, Huesca (380 m.)



Fecha
DESCASC
Temp. máxima en grados centígrados (hora)
DESCASC
Temp. mínima en grados centígrados (hora)
DESCASC
Temp. media en grados centígrados
DESCASC
Racha de viento máxima en m/sg (hora)
DESCASC
Velocidad máxima media en intervalos de 10 minutos(hora)
DESCASC
Precipitaciones diarias en mm
DESCASC
Precipitaciones de 00:00 a 06:00 en mm
DESCASC
Precipitaciones de 06:00 a 12:00 en mm
DESCASC
Precipitaciones de 12:00 a 18:00 en mm
DESCASC
Precipitaciones de 18:00 a 24:00 en mm
DESCASC
15-08-2019 31 (17:20) 18.4 (07:30) 24.7 12.22 (23:50) 8.33 (23:20) 0 0 0 0 0
14-08-2019 31.6 (18:00) 14.5 (00:00) 23.1 11.67 (17:00) 8.33 (18:50) 0 0 0 0 0
13-08-2019 26.7 (17:40) 14.1 (00:00) 20.4 11.94 (20:20) 8.61 (19:50) 0 0 0 0 0
12-08-2019 26.5 (16:30) 15.8 (00:00) 21.2 15 (20:20) 9.72 (23:00) 0 0 0 0 0
11-08-2019 31.6 (17:40) 20.8 (00:00) 26.2 11.39 (16:10) 6.94 (16:10) 0 0 0 0 0
10-08-2019 31.8 (17:50) 21.2 (00:00) 26.5 11.67 (00:20) 7.5 (00:20) 0 0 0 0 0
09-08-2019 38.8 (17:20) 22 (00:00) 30.4 17.5 (23:00) 12.5 (23:10) 0 0 0 0 0
08-08-2019 34.6 (17:50) 20.8 (00:00) 27.7 6.67 (17:00) 5 (05:40) 0 0 0 0 0
07-08-2019 31.6 (16:30) 20.3 (00:00) 25.9 8.89 (17:20) 6.11 (17:20) 0 0 0 0 0
06-08-2019 34 (17:50) 20.5 (00:00) 27.3 6.39 (13:10) 3.89 (16:30) 0 0 0 0 0
05-08-2019 34.1 (17:50) 19.7 (00:00) 26.9 8.61 (19:40) 5.28 (19:40) 0 0 0 0 0
04-08-2019 34.3 (17:00) 18.8 (00:00) 26.5 10.28 (19:40) 5.83 (19:50) 0 0 0 0 0
03-08-2019 34.1 (17:50) 18.3 (00:00) 26.2 9.17 (20:10) 6.11 (20:10) 0 0 0 0 0
02-08-2019 34 (17:40) 18 (00:00) 26 7.5 (14:40) 5.28 (19:20) 0 0 0 0 0
01-08-2019 31.7 (17:50) 18.4 (00:00) 25.1 7.5 (03:00) 4.44 (15:50) 0 0 0 0 0
31-07-2019 29 (17:30) 14.2 (00:00) 21.6 9.17 (00:10) 6.67 (00:10) 0 0 0 0 0
30-07-2019 28.8 (16:00) 16.5 (00:00) 22.6 11.39 (18:10) 8.61 (23:10) 0 0 0 0 0
29-07-2019 32.6 (17:00) 15.5 (00:00) 24 9.17 (00:20) 5.83 (00:20) 0 0 0 0 0
28-07-2019 27.2 (17:40) 14.9 (00:00) 21.1 16.67 (03:00) 11.94 (03:00) 0 0 0 0 0
27-07-2019 26 (16:20) 17.1 (00:00) 21.6 17.5 (23:20) 12.5 (23:30) 0.8 0 0.8 0 0
26-07-2019 28.9 (16:10) 21.6 (00:00) 25.3 12.22 (14:30) 8.61 (14:30) 1 0 0.6 0.4 0
25-07-2019 35.8 (17:40) 21.2 (00:00) 28.5 18.06 (18:40) 11.94 (18:50) 0 0 0 0 0
24-07-2019 37.3 (16:30) 22.3 (00:00) 29.8 8.89 (20:20) 5.28 (20:20) 0 0 0 0 0
23-07-2019 37.6 (17:10) 21.9 (00:00) 29.7 10.28 (19:50) 7.22 (19:50) 0 0 0 0 0
22-07-2019 36.7 (16:30) 20.9 (00:00) 28.8 9.72 (18:00) 5.56 (18:00) 0 0 0 0 0
21-07-2019 34.7 (17:30) 20.3 (00:00) 27.5 8.89 (18:10) 5.83 (18:30) 0 0 0 0 0
20-07-2019 34.2 (18:00) 19.2 (00:00) 26.7 11.11 (19:10) 6.39 (19:20) 0 0 0 0 0
19-07-2019 32.2 (18:30) 16.1 (00:00) 24.2 10.56 (19:30) 5.56 (19:40) 0 0 0 0 0

Gráficas

Temp. máximas Temp. mínimas Temp. medias Precipitaciones Rachas de viento máximas Velocidades máximas media en intervalos de 10 minutos

Datos horarios

Fecha y hora oficial Temperatura (ºC) Velocidad del viento (km/h) Dirección del viento Racha (km/h) Dirección de racha Precipitación (mm) Presión (hPa) Tendencia (hPa) Humedad (%)
2019-08-17 23:00:00 24.8 11 Sudeste 21 Sudeste 0 -- -- 67
2019-08-17 22:00:00 27.5 13 Sudeste 22 Sur 0 -- -- 58
2019-08-17 21:00:00 29.6 15 Sur 32 Sudeste 0 -- -- 50
2019-08-17 20:00:00 32.1 18 Sudeste 35 Sudeste 0 -- -- 45
2019-08-17 19:00:00 33.4 15 Este 26 Sudeste 0 -- -- 39
2019-08-17 18:00:00 33.8 14 Este 25 Este 0 -- -- 38
2019-08-17 17:00:00 33.6 11 Este 22 Sudeste 0 -- -- 39
2019-08-17 16:00:00 32.8 7 Sudeste 21 Sudeste 0 -- -- 42
2019-08-17 15:00:00 31.8 8 Este 21 Este 0 -- -- 44
2019-08-17 14:00:00 29.9 11 Sudeste 22 Este 0 -- -- 48
2019-08-17 13:00:00 28.5 9 Sudeste 22 Sudeste 0 -- -- 52
2019-08-17 12:00:00 27 9 Sudeste 17 Este 0 -- -- 55
2019-08-17 11:00:00 24.9 9 Sudeste 18 Sudeste 0 -- -- 62
2019-08-17 10:00:00 23.9 8 Este 14 Este 0 -- -- 63
2019-08-17 09:00:00 22.2 5 Sur 9 Sudoeste 0 -- -- 69
2019-08-17 08:00:00 20.1 0 Calma 5 Sudoeste 0 -- -- 78
2019-08-17 07:00:00 19.8 3 Sur 5 Oeste 0 -- -- 77
2019-08-17 06:00:00 20.3 0 Calma 5 Sudoeste 0 -- -- 75
2019-08-17 05:00:00 20.7 2 Sudeste 6 Sur 0 -- -- 75
2019-08-17 04:00:00 21.2 3 Sudeste 10 Sudeste 0 -- -- 73
2019-08-17 03:00:00 21.5 2 Sudeste 8 Sur 0 -- -- 71
2019-08-17 02:00:00 22 4 Sudeste 13 Sudeste 0 -- -- 67
2019-08-17 01:00:00 23.7 7 Sur 12 Sudeste 0 -- -- 60
2019-08-17 00:00:00 25.1 10 Sudeste 17 Sudeste 0 -- -- 54
2019-08-16 23:00:00 26 6 Este 12 Este 0 -- -- 48
2019-08-16 22:00:00 27.6 7 Sur 13 Sudeste 0 -- -- 39
2019-08-16 21:00:00 29.1 6 Sudeste 13 Sudeste 0 -- -- 34
2019-08-16 20:00:00 30.6 11 Sudeste 17 Sudeste 0 -- -- 30
2019-08-16 19:00:00 31.5 11 Sudeste 18 Este 0 -- -- 26
2019-08-16 18:00:00 31.3 9 Sudeste 21 Este 0 -- -- 27
2019-08-16 17:00:00 30.9 9 Sudeste 21 Sudeste 0 -- -- 27
2019-08-16 16:00:00 30.1 11 Este 23 Sudeste 0 -- -- 29
2019-08-16 15:00:00 29.3 10 Sudeste 21 Este 0 -- -- 30
2019-08-16 14:00:00 27.8 12 Sudeste 20 Sudeste 0 -- -- 34
2019-08-16 13:00:00 26.5 8 Sudeste 21 Este 0 -- -- 34
2019-08-16 12:00:00 24.2 9 Sudeste 17 Sudeste 0 -- -- 40
2019-08-16 11:00:00 21.9 6 Nordeste 14 Este 0 -- -- 46
2019-08-16 10:00:00 19 8 Nordeste 13 Norte 0 -- -- 54
2019-08-16 09:00:00 17.4 5 Norte 8 Sudeste 0 -- -- 54
2019-08-16 08:00:00 14.9 6 Norte 13 Noroeste 0 -- -- 61
2019-08-16 07:00:00 14.9 4 Noroeste 9 Oeste 0 -- -- 56
2019-08-16 06:00:00 16 9 Oeste 18 Noroeste 0 -- -- 53
2019-08-16 05:00:00 15.9 8 Oeste 9 Oeste 0 -- -- 59
2019-08-16 04:00:00 17 4 Este 15 Sur 0 -- -- 56
2019-08-16 03:00:00 18.8 11 Este 28 Noroeste 0 -- -- 45
2019-08-16 02:00:00 20.1 15 Noroeste 32 Noroeste 0 -- -- 40
2019-08-16 01:00:00 21 23 Noroeste 37 Noroeste 0 -- -- 40
2019-08-16 00:00:00 22 27 Oeste 44 Sudoeste 0 -- -- 40
2019-08-15 23:00:00 23.2 26 Oeste 37 Oeste 0 -- -- 37
2019-08-15 22:00:00 24.5 20 Oeste 35 Oeste 0 -- -- 34
2019-08-15 21:00:00 26 21 Noroeste 33 Noroeste 0 -- -- 32
2019-08-15 20:00:00 29 22 Noroeste 34 Noroeste 0 -- -- 28
2019-08-15 19:00:00 30.5 25 Noroeste 42 Noroeste 0 -- -- 25
2019-08-15 18:00:00 30.9 28 Noroeste 41 Noroeste 0 -- -- 27
2019-08-15 17:00:00 30.7 23 Noroeste 35 Noroeste 0 -- -- 22
2019-08-15 16:00:00 30.8 21 Noroeste 35 Noroeste 0 -- -- 27
2019-08-15 15:00:00 30.1 19 Noroeste 32 Noroeste 0 -- -- 33
2019-08-15 14:00:00 29.5 20 Noroeste 33 Noroeste 0 -- -- 37
2019-08-15 13:00:00 28.3 14 Noroeste 29 Noroeste 0 -- -- 41
2019-08-15 12:00:00 26.2 17 Noroeste 25 Noroeste 0 -- -- 45
2019-08-15 11:00:00 23.9 13 Norte 23 Noroeste 0 -- -- 53
2019-08-15 10:00:00 22.7 17 Noroeste 28 Norte 0 -- -- 57
2019-08-15 09:00:00 22.1 15 Norte 24 Noroeste 0 -- -- 60
2019-08-15 08:00:00 19.3 15 Noroeste 21 Noroeste 0 -- -- 71
2019-08-15 07:00:00 18.7 16 Noroeste 28 Noroeste 0 -- -- 73
2019-08-15 06:00:00 19.1 21 Noroeste 35 Noroeste 0 -- -- 70
2019-08-15 05:00:00 19.3 14 Norte 33 Noroeste 0 -- -- 68
2019-08-15 04:00:00 20.8 20 Noroeste 36 Oeste 0 -- -- 61
2019-08-15 03:00:00 22.3 23 Oeste 33 Oeste 0 -- -- 54
2019-08-15 02:00:00 22.8 25 Noroeste 35 Oeste 0 -- -- 50
2019-08-15 01:00:00 23.6 21 Noroeste 34 Noroeste 0 -- -- 48
2019-08-15 00:00:00 24.5 21 Oeste 28 Oeste 0 -- -- 44
2019-08-14 23:00:00 24.9 14 Noroeste 23 Noroeste 0 -- -- 41
2019-08-14 22:00:00 26.3 14 Noroeste 21 Noroeste 0 -- -- 36
2019-08-14 21:00:00 28 17 Noroeste 32 Noroeste 0 -- -- 31
2019-08-14 20:00:00 30.4 18 Noroeste 35 Noroeste 0 -- -- 28
2019-08-14 19:00:00 31.1 25 Noroeste 42 Noroeste 0 -- -- 25
2019-08-14 18:00:00 31.6 24 Noroeste 42 Noroeste 0 -- -- 25
2019-08-14 17:00:00 31.4 26 Noroeste 42 Noroeste 0 -- -- 25
2019-08-14 16:00:00 30.7 21 Noroeste 35 Noroeste 0 -- -- 24
2019-08-14 15:00:00 30.1 22 Noroeste 36 Noroeste 0 -- -- 24
2019-08-14 14:00:00 29 19 Noroeste 40 Noroeste 0 -- -- 26
2019-08-14 13:00:00 27.8 21 Noroeste 33 Noroeste 0 -- -- 27
2019-08-14 12:00:00 24.5 6 Norte 11 Norte 0 -- -- 36
2019-08-14 11:00:00 21.3 7 Este 12 Este 0 -- -- 44
2019-08-14 10:00:00 18.2 6 Sudeste 13 Sudeste 0 -- -- 51
2019-08-14 09:00:00 15.8 7 Sudeste 11 Sur 0 -- -- 60
2019-08-14 08:00:00 14.5 5 Sudoeste 21 Noroeste 0 -- -- 61
2019-08-14 07:00:00 15.4 16 Noroeste 22 Noroeste 0 -- -- 52
2019-08-14 06:00:00 15.3 5 Oeste 21 Norte 0 -- -- 52
2019-08-14 05:00:00 16.4 17 Noroeste 21 Noroeste 0 -- -- 52
2019-08-14 04:00:00 16 8 Nordeste 32 Oeste 0 -- -- 57
2019-08-14 03:00:00 16.6 14 Noroeste 30 Noroeste 0 -- -- 55
2019-08-14 02:00:00 17.1 21 Noroeste 33 Noroeste 0 -- -- 53
2019-08-14 01:00:00 17.9 23 Noroeste 32 Noroeste 0 -- -- 50
2019-08-14 00:00:00 18.8 22 Noroeste 40 Oeste 0 -- -- 47
2019-08-13 23:00:00 20.2 26 Noroeste 38 Noroeste 0 -- -- 42
2019-08-13 22:00:00 21.6 17 Oeste 30 Noroeste 0 -- -- 38
2019-08-13 21:00:00 23.1 20 Noroeste 43 Noroeste 0 -- -- 33
2019-08-13 20:00:00 25 26 Noroeste 40 Noroeste 0 -- -- 30
2019-08-13 19:00:00 26.2 23 Noroeste 37 Noroeste 0 -- -- 28
2019-08-13 18:00:00 26.6 23 Noroeste 36 Noroeste 0 -- -- 27
2019-08-13 17:00:00 26.5 24 Noroeste 37 Noroeste 0 -- -- 25
2019-08-13 16:00:00 26.3 21 Noroeste 36 Noroeste 0 -- -- 26
2019-08-13 15:00:00 25.2 17 Noroeste 33 Noroeste 0 -- -- 29
2019-08-13 14:00:00 23.7 18 Norte 27 Noroeste 0 -- -- 35
2019-08-13 13:00:00 21.8 15 Noroeste 33 Noroeste 0 -- -- 42
2019-08-13 12:00:00 20.1 15 Noroeste 25 Norte 0 -- -- 46
2019-08-13 11:00:00 18.2 16 Noroeste 27 Noroeste 0 -- -- 52
2019-08-13 10:00:00 16.4 16 Noroeste 26 Noroeste 0 -- -- 58
2019-08-13 09:00:00 15.4 17 Noroeste 22 Noroeste 0 -- -- 62
2019-08-13 08:00:00 14.5 15 Noroeste 22 Noroeste 0 -- -- 65
2019-08-13 07:00:00 14.2 18 Noroeste 24 Noroeste 0 -- -- 67
2019-08-13 06:00:00 14.9 14 Noroeste 27 Noroeste 0 -- -- 66
2019-08-13 05:00:00 15 15 Noroeste 30 Noroeste 0 -- -- 65
2019-08-13 04:00:00 15.1 20 Noroeste 34 Oeste 0 -- -- 64
2019-08-13 03:00:00 15.4 22 Oeste 32 Noroeste 0 -- -- 61
2019-08-13 02:00:00 15.2 23 Noroeste 36 Noroeste 0 -- -- 61
2019-08-13 01:00:00 15.8 28 Noroeste 39 Noroeste 0 -- -- 60
2019-08-13 00:00:00 16.2 27 Noroeste 46 Noroeste 0 -- -- 58
2019-08-12 23:00:00 17.4 35 Noroeste 50 Noroeste 0 -- -- 54
2019-08-12 22:00:00 18.4 29 Noroeste 46 Noroeste 0 -- -- 51
2019-08-12 21:00:00 20.1 32 Noroeste 54 Noroeste 0 -- -- 44
2019-08-12 20:00:00 22.5 31 Noroeste 52 Noroeste 0 -- -- 39
2019-08-12 19:00:00 24.3 34 Noroeste 49 Noroeste 0 -- -- 35
2019-08-12 18:00:00 25.6 29 Noroeste 50 Noroeste 0 -- -- 29
2019-08-12 17:00:00 26 30 Noroeste 43 Noroeste 0 -- -- 28
2019-08-12 16:00:00 26 27 Noroeste 45 Noroeste 0 -- -- 30
2019-08-12 15:00:00 25.5 28 Noroeste 45 Noroeste 0 -- -- 32
2019-08-12 14:00:00 24.8 27 Noroeste 44 Noroeste 0 -- -- 35
2019-08-12 13:00:00 23.7 30 Noroeste 41 Noroeste 0 -- -- 40
2019-08-12 12:00:00 22.4 30 Noroeste 41 Noroeste 0 -- -- 46
2019-08-12 11:00:00 20.9 30 Noroeste 44 Noroeste 0 -- -- 52
2019-08-12 10:00:00 19.1 30 Noroeste 44 Oeste 0 -- -- 57
2019-08-12 09:00:00 17.8 21 Noroeste 36 Noroeste 0 -- -- 63
2019-08-12 08:00:00 15.9 27 Noroeste 40 Noroeste 0 -- -- 70
2019-08-12 07:00:00 15.8 24 Noroeste 35 Noroeste 0 -- -- 71
2019-08-12 06:00:00 16.3 26 Noroeste 35 Noroeste 0 -- -- 69
2019-08-12 05:00:00 17 23 Noroeste 42 Oeste 0 -- -- 66
2019-08-12 04:00:00 18.6 30 Noroeste 46 Oeste 0 -- -- 59
2019-08-12 03:00:00 19.9 29 Noroeste 46 Noroeste 0 -- -- 53
2019-08-12 02:00:00 21.2 31 Noroeste 42 Noroeste 0 -- -- 47
2019-08-12 01:00:00 21.9 28 Noroeste 38 Noroeste 0 -- -- 45
2019-08-12 00:00:00 22.3 23 Noroeste 34 Noroeste 0 -- -- 44
2019-08-11 23:00:00 22.7 17 Noroeste 26 Noroeste 0 -- -- 45
2019-08-11 22:00:00 24.1 20 Noroeste 34 Noroeste 0 -- -- 43
2019-08-11 21:00:00 26.3 21 Noroeste 30 Noroeste 0 -- -- 37
2019-08-11 20:00:00 29.1 15 Noroeste 28 Noroeste 0 -- -- 32
2019-08-11 19:00:00 30.7 18 Noroeste 31 Norte 0 -- -- 29
2019-08-11 18:00:00 31 19 Norte 32 Noroeste 0 -- -- 28
2019-08-11 17:00:00 31.1 19 Norte 41 Norte 0 -- -- 29
2019-08-11 16:00:00 30.2 24 Norte 37 Norte 0 -- -- 34
2019-08-11 15:00:00 29.2 19 Norte 29 Norte 0 -- -- 39
2019-08-11 14:00:00 27.3 16 Norte 24 Norte 0 -- -- 52
2019-08-11 13:00:00 24.6 10 Nordeste 17 Norte 0 -- -- 62
2019-08-11 12:00:00 23.1 12 Norte 19 Norte 0 -- -- 64
2019-08-11 11:00:00 21.9 15 Norte 24 Norte 0 -- -- 65
2019-08-11 10:00:00 21.1 16 Norte 27 Norte 0 -- -- 66
2019-08-11 09:00:00 22.8 10 Sur 19 Sudeste 0 -- -- 75
2019-08-11 08:00:00 21.7 9 Sudeste 19 Sudeste 0 -- -- 82
2019-08-11 07:00:00 21.8 6 Este 14 Este 0 -- -- 82
2019-08-11 06:00:00 22 10 Sudeste 19 Sudeste 0 -- -- 82
2019-08-11 05:00:00 21.4 5 Nordeste 10 Sudeste 0 -- -- 74
2019-08-11 04:00:00 22.4 3 Sur 14 Sudeste 0 -- -- 68
2019-08-11 03:00:00 22.5 5 Nordeste 12 Nordeste 0 -- -- 53
2019-08-11 02:00:00 24.3 2 Sur 6 Sudoeste 0 -- -- 42
2019-08-11 01:00:00 24.2 4 Sudoeste 8 Sur 0 -- -- 44
2019-08-11 00:00:00 25.3 5 Oeste 10 Noroeste 0 -- -- 41
2019-08-10 23:00:00 25.6 8 Noroeste 12 Noroeste 0 -- -- 40
2019-08-10 22:00:00 26.7 8 Noroeste 14 Noroeste 0 -- -- 40
2019-08-10 21:00:00 28.3 8 Norte 13 Norte 0 -- -- 39
2019-08-10 20:00:00 30.6 11 Nordeste 19 Norte 0 -- -- 36
2019-08-10 19:00:00 31.7 13 Norte 22 Nordeste 0 -- -- 30
2019-08-10 18:00:00 31.3 12 Norte 26 Nordeste 0 -- -- 30
2019-08-10 17:00:00 31.4 19 Nordeste 32 Nordeste 0 -- -- 30
2019-08-10 16:00:00 31.4 22 Norte 32 Nordeste 0 -- -- 32
2019-08-10 15:00:00 31 17 Norte 26 Noroeste 0 -- -- 30
2019-08-10 14:00:00 30.1 9 Noroeste 26 Oeste 0 -- -- 32
2019-08-10 13:00:00 29.1 12 Norte 24 Noroeste 0 -- -- 33
2019-08-10 12:00:00 27.8 14 Noroeste 28 Noroeste 0 -- -- 36
2019-08-10 11:00:00 26.8 18 Noroeste 31 Noroeste 0 -- -- 36
2019-08-10 10:00:00 25.6 19 Noroeste 31 Noroeste 0 -- -- 39
2019-08-10 09:00:00 23.2 17 Noroeste 34 Noroeste 0 -- -- 48
2019-08-10 08:00:00 21.8 23 Noroeste 35 Oeste 0 -- -- 50
2019-08-10 07:00:00 21.2 19 Oeste 36 Oeste 0 -- -- 51
2019-08-10 06:00:00 22.1 19 Oeste 30 Oeste 0 -- -- 46
2019-08-10 05:00:00 22.5 16 Oeste 33 Noroeste 0 -- -- 45
2019-08-10 04:00:00 23.1 24 Noroeste 34 Noroeste 0 -- -- 45
2019-08-10 03:00:00 23.7 18 Oeste 33 Noroeste 0 -- -- 45
2019-08-10 02:00:00 24.2 10 Noroeste 29 Noroeste 0 -- -- 49
2019-08-10 01:00:00 24.3 21 Noroeste 42 Noroeste 0 -- -- 48
2019-08-10 00:00:00 24.4 17 Norte 62 Noroeste 0 -- -- 46
2019-08-09 23:00:00 27 44 Noroeste 63 Noroeste 0 -- -- 53
2019-08-09 22:00:00 28.7 21 Noroeste 49 Noroeste 0 -- -- 47
2019-08-09 21:00:00 35 19 Oeste 32 Oeste 0 -- -- 29
2019-08-09 20:00:00 36.2 17 Oeste 31 Oeste 0 -- -- 25
2019-08-09 19:00:00 37.7 17 Oeste 32 Oeste 0 -- -- 23
2019-08-09 18:00:00 38 17 Oeste 38 Oeste 0 -- -- 23
2019-08-09 17:00:00 37.8 18 Noroeste 37 Oeste 0 -- -- 24
2019-08-09 16:00:00 37.9 17 Oeste 35 Sudoeste 0 -- -- 22
2019-08-09 15:00:00 36.9 22 Oeste 40 Oeste 0 -- -- 23
2019-08-09 14:00:00 36.5 19 Sudoeste 40 Sudoeste 0 -- -- 23
2019-08-09 13:00:00 35.3 12 Sudoeste 34 Oeste 0 -- -- 26
2019-08-09 12:00:00 31.5 11 Sudeste 20 Este 0 -- -- 37
2019-08-09 11:00:00 29 9 Este 14 Sudeste 0 -- -- 45
2019-08-09 10:00:00 26.8 7 Sudeste 12 Sudeste 0 -- -- 48
2019-08-09 09:00:00 25.8 5 Este 8 Nordeste 0 -- -- 51
2019-08-09 08:00:00 23.1 0 Calma 6 Sudoeste 0 -- -- 58
2019-08-09 07:00:00 22.1 4 Sudoeste 7 Sur 0 -- -- 59
2019-08-09 06:00:00 22 6 Sudoeste 13 Sudoeste 0 -- -- 60
2019-08-09 05:00:00 22.4 6 Sudoeste 10 Sudoeste 0 -- -- 60
2019-08-09 04:00:00 23.3 3 Sudoeste 4 Noroeste 0 -- -- 60
2019-08-09 03:00:00 23.9 3 Sudoeste 11 Este 0 -- -- 59
2019-08-09 02:00:00 25.2 9 Nordeste 19 Este 0 -- -- 56
2019-08-09 01:00:00 26.9 4 Sudeste 14 Sudeste 0 -- -- 47
2019-08-09 00:00:00 27.5 8 Sur 19 Sudeste 0 -- -- 47
2019-08-08 23:00:00 28.6 10 Sur 15 Sur 0 -- -- 43
2019-08-08 22:00:00 29.5 10 Sudeste 18 Sudeste 0 -- -- 41
2019-08-08 21:00:00 31.4 9 Sudeste 18 Sudeste 0 -- -- 37
2019-08-08 20:00:00 33.2 9 Este 20 Este 0 -- -- 34
2019-08-08 19:00:00 33.6 13 Este 22 Este 0 -- -- 32
2019-08-08 18:00:00 34.3 13 Nordeste 19 Este 0 -- -- 31
2019-08-08 17:00:00 33.6 12 Este 24 Este 0 -- -- 31
2019-08-08 16:00:00 33.8 11 Este 21 Este 0 -- -- 32
2019-08-08 15:00:00 33 11 Nordeste 21 Este 0 -- -- 32
2019-08-08 14:00:00 31.8 8 Nordeste 22 Norte 0 -- -- 34
2019-08-08 13:00:00 30.1 10 Este 19 Nordeste 0 -- -- 38
2019-08-08 12:00:00 28.9 12 Nordeste 23 Nordeste 0 -- -- 41
2019-08-08 11:00:00 27.8 9 Nordeste 17 Norte 0 -- -- 43
2019-08-08 10:00:00 25.6 7 Nordeste 17 Nordeste 0 -- -- 48
2019-08-08 09:00:00 25 5 Noroeste 11 Nordeste 0 -- -- 48
2019-08-08 08:00:00 21.8 2 Sur 13 Noroeste 0 -- -- 55
2019-08-08 07:00:00 21.8 11 Noroeste 19 Oeste 0 -- -- 53
2019-08-08 06:00:00 22.3 15 Noroeste 23 Noroeste 0 -- -- 52
2019-08-08 05:00:00 22.6 13 Oeste 18 Oeste 0 -- -- 50
2019-08-08 04:00:00 24.4 12 Oeste 18 Oeste 0 -- -- 42
2019-08-08 03:00:00 25.3 11 Sudoeste 18 Sudoeste 0 -- -- 40
2019-08-08 02:00:00 25.8 16 Oeste 19 Oeste 0 -- -- 39
2019-08-08 01:00:00 26.1 12 Oeste 16 Oeste 0 -- -- 40
2019-08-08 00:00:00 26.1 8 Sudoeste 12 Oeste 0 -- -- 42
2019-08-07 23:00:00 26.7 9 Noroeste 11 Noroeste 0 -- -- 41
2019-08-07 22:00:00 27.9 8 Oeste 10 Oeste 0 -- -- 38
2019-08-07 21:00:00 28.1 6 Oeste 15 Norte 0 -- -- 39
2019-08-07 20:00:00 28.9 10 Norte 14 Noroeste 0 -- -- 38
2019-08-07 19:00:00 28.4 13 Noroeste 30 Noroeste 0 -- -- 39
2019-08-07 18:00:00 29.6 15 Noroeste 32 Noroeste 0 -- -- 37
2019-08-07 17:00:00 31.1 17 Noroeste 29 Oeste 0 -- -- 35
2019-08-07 16:00:00 30.5 10 Norte 26 Este 0 -- -- 41
2019-08-07 15:00:00 30.2 6 Sur 15 Sudeste 0 -- -- 46
2019-08-07 14:00:00 29.6 5 Sur 17 Sur 0 -- -- 50
2019-08-07 13:00:00 27.8 7 Norte 21 Norte 0 -- -- 57
2019-08-07 12:00:00 27 8 Nordeste 21 Nordeste 0 -- -- 60
2019-08-07 11:00:00 25.7 7 Norte 17 Norte 0 -- -- 65
2019-08-07 10:00:00 23.9 9 Norte 15 Noroeste 0 -- -- 65
2019-08-07 09:00:00 21.8 8 Noroeste 16 Noroeste 0 -- -- 70
2019-08-07 08:00:00 20.5 10 Norte 17 Noroeste 0 -- -- 76
2019-08-07 07:00:00 20.6 9 Norte 14 Norte 0 -- -- 76
2019-08-07 06:00:00 20.9 8 Norte 15 Noroeste 0 -- -- 76
2019-08-07 05:00:00 21.8 11 Norte 16 Noroeste 0 -- -- 71
2019-08-07 04:00:00 22.6 7 Norte 11 Sudeste 0 -- -- 78
2019-08-07 03:00:00 24.1 2 Sur 11 Sudeste 0 -- -- 72
2019-08-07 02:00:00 25 5 Sudeste 14 Este 0 -- -- 65
2019-08-07 01:00:00 25.9 8 Sudeste 18 Este 0 -- -- 60
2019-08-07 00:00:00 27.9 6 Sudeste 13 Sur 0 -- -- 55
2019-08-06 23:00:00 28.6 7 Sur 10 Sur 0 -- -- 47
2019-08-06 22:00:00 29.8 5 Sur 11 Sudeste 0 -- -- 44
2019-08-06 21:00:00 31.4 8 Sudeste 17 Sudeste 0 -- -- 38
2019-08-06 20:00:00 32.5 7 Sudeste 15 Sudeste 0 -- -- 37
2019-08-06 19:00:00 33.3 9 Este 16 Este 0 -- -- 37
2019-08-06 18:00:00 33.9 10 Nordeste 20 Nordeste 0 -- -- 36
2019-08-06 17:00:00 33.2 12 Nordeste 19 Nordeste 0 -- -- 40
2019-08-06 16:00:00 33.4 11 Este 22 Sudeste 0 -- -- 39
2019-08-06 15:00:00 32.4 7 Este 23 Este 0 -- -- 43
2019-08-06 14:00:00 30.9 9 Este 23 Sudeste 0 -- -- 47
2019-08-06 13:00:00 29.2 11 Sudeste 22 Sudeste 0 -- -- 51
2019-08-06 12:00:00 27.4 9 Nordeste 19 Este 0 -- -- 55
2019-08-06 11:00:00 25.6 9 Nordeste 15 Este 0 -- -- 58
2019-08-06 10:00:00 24.6 4 Sudeste 10 Este 0 -- -- 59
2019-08-06 09:00:00 23.3 4 Sudeste 8 Sur 0 -- -- 60
2019-08-06 08:00:00 20.9 0 Calma 5 Norte 0 -- -- 63
2019-08-06 07:00:00 20.8 2 Nordeste 5 Sudoeste 0 -- -- 67
2019-08-06 06:00:00 21.2 2 Sudoeste 6 Sudoeste 0 -- -- 63
2019-08-06 05:00:00 21.7 4 Sudoeste 13 Sudoeste 0 -- -- 55
2019-08-06 04:00:00 21.8 8 Sudoeste 13 Oeste 0 -- -- 55
2019-08-06 03:00:00 22.2 3 Este 6 Este 0 -- -- 55
2019-08-06 02:00:00 23.5 4 Sudeste 15 Este 0 -- -- 52
2019-08-06 01:00:00 23.5 9 Este 18 Este 0 -- -- 53
2019-08-06 00:00:00 25.2 9 Sudeste 15 Este 0 -- -- 51
2019-08-05 23:00:00 27.5 6 Sudeste 20 Sudeste 0 -- -- 46
2019-08-05 22:00:00 28.7 8 Sudeste 18 Sudeste 0 -- -- 46
2019-08-05 21:00:00 30.7 13 Sudeste 27 Sudeste 0 -- -- 41
2019-08-05 20:00:00 32.7 16 Sudeste 31 Sudeste 0 -- -- 37
2019-08-05 19:00:00 33.9 16 Este 26 Este 0 -- -- 37
2019-08-05 18:00:00 33.9 17 Este 29 Este 0 -- -- 36
2019-08-05 17:00:00 33.9 12 Sudeste 23 Sudeste 0 -- -- 36
2019-08-05 16:00:00 32.8 13 Este 27 Este 0 -- -- 36
2019-08-05 15:00:00 32.1 10 Sudeste 19 Sudeste 0 -- -- 39
2019-08-05 14:00:00 30.7 11 Sur 20 Este 0 -- -- 44
2019-08-05 13:00:00 28.8 8 Este 21 Este 0 -- -- 48
2019-08-05 12:00:00 27.4 11 Este 19 Este 0 -- -- 49
2019-08-05 11:00:00 26 7 Nordeste 13 Este 0 -- -- 54
2019-08-05 10:00:00 23.7 5 Norte 11 Norte 0 -- -- 58
2019-08-05 09:00:00 22.2 6 Norte 10 Norte 0 -- -- 64
2019-08-05 08:00:00 20.5 4 Noroeste 12 Noroeste 0 -- -- 69
2019-08-05 07:00:00 20 9 Noroeste 11 Noroeste 0 -- -- 70
2019-08-05 06:00:00 21.2 0 Calma 8 Sudoeste 0 -- -- 67
2019-08-05 05:00:00 21.6 3 Sudoeste 4 Sudoeste 0 -- -- 65
2019-08-05 04:00:00 21.7 3 Sudoeste 5 Noroeste 0 -- -- 66
2019-08-05 03:00:00 22.7 3 Sudoeste 8 Sur 0 -- -- 64
2019-08-05 02:00:00 23 5 Sudeste 10 Sudeste 0 -- -- 63
2019-08-05 01:00:00 23.4 3 Sudeste 19 Este 0 -- -- 62
2019-08-05 00:00:00 24.5 10 Este 17 Sudeste 0 -- -- 62
2019-08-04 23:00:00 26.1 10 Sudeste 17 Sudeste 0 -- -- 59
2019-08-04 22:00:00 28.4 9 Sudeste 16 Sudeste 0 -- -- 52
2019-08-04 21:00:00 30.9 10 Sudeste 25 Sudeste 0 -- -- 43
2019-08-04 20:00:00 32.9 16 Sudeste 37 Sudeste 0 -- -- 38
2019-08-04 19:00:00 33.9 19 Este 34 Este 0 -- -- 38
2019-08-04 18:00:00 34.3 17 Sudeste 30 Este 0 -- -- 34
2019-08-04 17:00:00 34.3 13 Este 26 Sudeste 0 -- -- 34
2019-08-04 16:00:00 33.2 11 Sudeste 24 Este 0 -- -- 36
2019-08-04 15:00:00 32 10 Sudeste 24 Sur 0 -- -- 39
2019-08-04 14:00:00 31.1 10 Sudeste 17 Sudeste 0 -- -- 41
2019-08-04 13:00:00 29.6 6 Sudeste 16 Sudeste 0 -- -- 43
2019-08-04 12:00:00 27.3 8 Sudeste 18 Este 0 -- -- 47
2019-08-04 11:00:00 26.4 8 Sudeste 13 Este 0 -- -- 50
2019-08-04 10:00:00 25 4 Sur 8 Sur 0 -- -- 53
2019-08-04 09:00:00 22.9 2 Sudoeste 7 Oeste 0 -- -- 57
2019-08-04 08:00:00 20.1 5 Norte 10 Noroeste 0 -- -- 66
2019-08-04 07:00:00 18.8 9 Noroeste 12 Noroeste 0 -- -- 69
2019-08-04 06:00:00 20.3 3 Norte 6 Sudoeste 0 -- -- 65
2019-08-04 05:00:00 20.6 3 Sudoeste 9 Sudoeste 0 -- -- 64
2019-08-04 04:00:00 21.5 3 Sur 9 Sudeste 0 -- -- 63
2019-08-04 03:00:00 21.8 4 Sudeste 12 Sudeste 0 -- -- 63
2019-08-04 02:00:00 22.3 6 Sudeste 12 Sudeste 0 -- -- 62
2019-08-04 01:00:00 22.8 7 Sudeste 16 Sudeste 0 -- -- 63
2019-08-04 00:00:00 23.9 9 Sudeste 19 Sudeste 0 -- -- 62
2019-08-03 23:00:00 25.5 10 Sudeste 17 Sudeste 0 -- -- 59
2019-08-03 22:00:00 28 9 Sudeste 17 Este 0 -- -- 52
2019-08-03 21:00:00 30.1 11 Sudeste 33 Sudeste 0 -- -- 46
2019-08-03 20:00:00 32.1 19 Sudeste 33 Sudeste 0 -- -- 37
2019-08-03 19:00:00 33.5 19 Este 31 Este 0 -- -- 33
2019-08-03 18:00:00 34.1 12 Este 23 Este 0 -- -- 32
2019-08-03 17:00:00 33.7 10 Sudeste 20 Sudeste 0 -- -- 32
2019-08-03 16:00:00 33.1 10 Sudeste 23 Este 0 -- -- 33
2019-08-03 15:00:00 31.7 12 Este 23 Sudeste 0 -- -- 37
2019-08-03 14:00:00 30 11 Sudeste 22 Sudeste 0 -- -- 40
2019-08-03 13:00:00 28.1 12 Sudeste 23 Este 0 -- -- 44
2019-08-03 12:00:00 26.4 11 Sudeste 21 Sudeste 0 -- -- 49
2019-08-03 11:00:00 25.1 10 Sudeste 17 Sudeste 0 -- -- 50
2019-08-03 10:00:00 24.1 7 Sudeste 11 Este 0 -- -- 50
2019-08-03 09:00:00 22.6 3 Sudeste 6 Sudeste 0 -- -- 55
2019-08-03 08:00:00 19.5 2 Oeste 6 Noroeste 0 -- -- 66
2019-08-03 07:00:00 18.5 3 Noroeste 8 Noroeste 0 -- -- 68
2019-08-03 06:00:00 18.7 0 Calma 5 Nordeste 0 -- -- 66
2019-08-03 05:00:00 19 4 Nordeste 7 Norte 0 -- -- 65
2019-08-03 04:00:00 20.5 3 Sur 10 Este 0 -- -- 60
2019-08-03 03:00:00 20.8 3 Este 9 Sudeste 0 -- -- 62
2019-08-03 02:00:00 22.1 9 Sudeste 20 Sudeste 0 -- -- 58
2019-08-03 01:00:00 25.6 9 Sudeste 17 Sudeste 0 -- -- 38
2019-08-03 00:00:00 27.1 11 Sudoeste 15 Sudoeste 0 -- -- 30
2019-08-02 23:00:00 28 10 Oeste 17 Oeste 0 -- -- 31
2019-08-02 22:00:00 29.8 9 Oeste 10 Oeste 0 -- -- 29
2019-08-02 21:00:00 31.9 3 Norte 11 Norte 0 -- -- 25
2019-08-02 20:00:00 33 10 Norte 27 Norte 0 -- -- 22
2019-08-02 19:00:00 33.7 15 Noroeste 26 Noroeste 0 -- -- 25
2019-08-02 18:00:00 33.5 10 Noroeste 23 Noroeste 0 -- -- 26
2019-08-02 17:00:00 33.5 14 Noroeste 24 Noroeste 0 -- -- 26
2019-08-02 16:00:00 32.6 13 Norte 24 Norte 0 -- -- 30
2019-08-02 15:00:00 31.7 15 Norte 27 Norte 0 -- -- 35
2019-08-02 14:00:00 30.3 10 Noroeste 24 Noroeste 0 -- -- 39
2019-08-02 13:00:00 28.2 10 Norte 20 Norte 0 -- -- 45
2019-08-02 12:00:00 26 13 Norte 21 Norte 0 -- -- 52
2019-08-02 11:00:00 24.1 13 Norte 21 Norte 0 -- -- 57
2019-08-02 10:00:00 22.6 7 Noroeste 15 Noroeste 0 -- -- 62
2019-08-02 09:00:00 19.8 6 Norte 10 Noroeste 0 -- -- 74
2019-08-02 08:00:00 18.4 6 Norte 17 Noroeste 0 -- -- 80
2019-08-02 07:00:00 18 13 Noroeste 17 Noroeste 0 -- -- 80
2019-08-02 06:00:00 18.7 10 Noroeste 13 Noroeste 0 -- -- 78
2019-08-02 05:00:00 19.9 4 Noroeste 12 Noroeste 0 -- -- 74
2019-08-02 04:00:00 19.8 9 Norte 12 Norte 0 -- -- 76
2019-08-02 03:00:00 21.6 7 Nordeste 9 Nordeste 0 -- -- 69
2019-08-02 02:00:00 23.2 6 Norte 15 Norte 0 -- -- 61
2019-08-02 01:00:00 24.2 11 Nordeste 19 Oeste 0 -- -- 56
2019-08-02 00:00:00 25.8 10 Oeste 17 Oeste 0 -- -- 46
2019-08-01 23:00:00 25.3 10 Noroeste 14 Noroeste 0 -- -- 49
2019-08-01 22:00:00 27.7 2 Sur 13 Este 0 -- -- 43
2019-08-01 21:00:00 29.1 10 Este 18 Este 0 -- -- 39
2019-08-01 20:00:00 30.4 15 Este 23 Este 0 -- -- 36
2019-08-01 19:00:00 31.1 12 Sudeste 25 Este 0 -- -- 34
2019-08-01 18:00:00 31.5 13 Este 26 Este 0 -- -- 34
2019-08-01 17:00:00 31.4 12 Este 24 Este 0 -- -- 34
2019-08-01 16:00:00 30.9 13 Este 24 Este 0 -- -- 36
2019-08-01 15:00:00 30.1 9 Sudeste 26 Sur 0 -- -- 34
2019-08-01 14:00:00 29.4 12 Este 24 Este 0 -- -- 36
2019-08-01 13:00:00 27.7 9 Sudeste 26 Sudeste 0 -- -- 40
2019-08-01 12:00:00 26.7 11 Sudeste 22 Sudeste 0 -- -- 43
2019-08-01 11:00:00 25.1 10 Sudeste 18 Sur 0 -- -- 49
2019-08-01 10:00:00 22.8 10 Sudeste 17 Sudeste 0 -- -- 67
2019-08-01 09:00:00 20.7 8 Sudeste 15 Sudeste 0 -- -- 76
2019-08-01 08:00:00 19.1 9 Este 15 Este 0 -- -- 82
2019-08-01 07:00:00 18.4 4 Este 18 Sur 0 -- -- 84
2019-08-01 06:00:00 18.6 9 Sudeste 17 Sudeste 0 -- -- 84
2019-08-01 05:00:00 19.2 6 Sudeste 19 Sudeste 0 -- -- 82
2019-08-01 04:00:00 19.6 14 Sudeste 24 Sudeste 0 -- -- 81
2019-08-01 03:00:00 19.9 14 Sudeste 27 Sudeste 0 -- -- 81
2019-08-01 02:00:00 20.4 8 Sudeste 18 Sudeste 0 -- -- 80
2019-08-01 01:00:00 21.2 8 Este 14 Sudeste 0 -- -- 77
2019-08-01 00:00:00 22.4 8 Sudeste 18 Este 0 -- -- 70
2019-07-31 23:00:00 24.4 9 Sudeste 16 Sur 0 -- -- 58
2019-07-31 22:00:00 25 10 Sur 22 Sudeste 0 -- -- 56
2019-07-31 21:00:00 26.7 14 Sudeste 28 Sudeste 0 -- -- 49
2019-07-31 20:00:00 28.1 20 Este 29 Este 0 -- -- 44
2019-07-31 19:00:00 28.8 14 Este 23 Sudeste 0 -- -- 37
2019-07-31 18:00:00 28.9 12 Este 24 Este 0 -- -- 36
2019-07-31 17:00:00 28.4 13 Sudeste 28 Este 0 -- -- 36
2019-07-31 16:00:00 27.8 15 Sudeste 30 Sur 0 -- -- 35
2019-07-31 15:00:00 27 13 Sudeste 27 Sudeste 0 -- -- 36
2019-07-31 14:00:00 25.9 11 Sudeste 25 Sur 0 -- -- 34
2019-07-31 13:00:00 24.1 6 Sudeste 18 Sur 0 -- -- 39
2019-07-31 12:00:00 20.9 5 Norte 12 Nordeste 0 -- -- 46
2019-07-31 11:00:00 18.5 6 Norte 15 Norte 0 -- -- 57
2019-07-31 10:00:00 17.4 10 Nordeste 15 Nordeste 0 -- -- 61
2019-07-31 09:00:00 16.5 5 Este 8 Este 0 -- -- 59
2019-07-31 08:00:00 14.8 3 Norte 12 Noroeste 0 -- -- 63
2019-07-31 07:00:00 14.3 8 Noroeste 13 Noroeste 0 -- -- 65
2019-07-31 06:00:00 14.6 7 Oeste 15 Oeste 0 -- -- 62
2019-07-31 05:00:00 15.2 14 Noroeste 19 Noroeste 0 -- -- 61
2019-07-31 04:00:00 15.4 10 Noroeste 17 Noroeste 0 -- -- 58
2019-07-31 03:00:00 15.6 12 Noroeste 15 Noroeste 0 -- -- 56
2019-07-31 02:00:00 16.1 10 Noroeste 21 Noroeste 0 -- -- 56
2019-07-31 01:00:00 17.3 19 Noroeste 33 Noroeste 0 -- -- 51
2019-07-31 00:00:00 18.6 23 Noroeste 41 Oeste 0 -- -- 50
2019-07-30 23:00:00 19.8 27 Oeste 38 Noroeste 0 -- -- 48
2019-07-30 22:00:00 22.1 24 Noroeste 37 Oeste 0 -- -- 40
2019-07-30 21:00:00 24.1 18 Oeste 31 Noroeste 0 -- -- 34
2019-07-30 20:00:00 25.8 24 Noroeste 41 Noroeste 0 -- -- 30
2019-07-30 19:00:00 27.1 19 Noroeste 41 Noroeste 0 -- -- 27
2019-07-30 18:00:00 27.7 22 Noroeste 37 Noroeste 0 -- -- 29
2019-07-30 17:00:00 28.2 20 Noroeste 35 Noroeste 0 -- -- 28
2019-07-30 16:00:00 28.8 19 Noroeste 30 Noroeste 0 -- -- 27
2019-07-30 15:00:00 27.6 19 Noroeste 32 Noroeste 0 -- -- 29
2019-07-30 14:00:00 27.1 17 Noroeste 33 Noroeste 0 -- -- 30
2019-07-30 13:00:00 26.1 23 Noroeste 35 Noroeste 0 -- -- 33
2019-07-30 12:00:00 24.7 23 Noroeste 36 Noroeste 0 -- -- 38
2019-07-30 11:00:00 22.9 24 Noroeste 39 Noroeste 0 -- -- 43
2019-07-30 10:00:00 21.3 26 Noroeste 39 Noroeste 0 -- -- 49
2019-07-30 09:00:00 19.2 18 Noroeste 37 Noroeste 0 -- -- 58
2019-07-30 08:00:00 17.2 24 Noroeste 37 Noroeste 0 -- -- 64
2019-07-30 07:00:00 16.6 26 Noroeste 40 Noroeste 0 -- -- 68
2019-07-30 06:00:00 17.4 23 Noroeste 34 Noroeste 0 -- -- 66
2019-07-30 05:00:00 17.9 17 Noroeste 25 Noroeste 0 -- -- 65
2019-07-30 04:00:00 19 17 Noroeste 29 Noroeste 0 -- -- 62
2019-07-30 03:00:00 20.6 15 Noroeste 29 Noroeste 0 -- -- 57
2019-07-30 02:00:00 21.5 17 Noroeste 26 Noroeste 0 -- -- 54
2019-07-30 01:00:00 22.7 12 Noroeste 21 Noroeste 0 -- -- 53
2019-07-30 00:00:00 26.2 6 Sur 15 Sur 0 -- -- 44
2019-07-29 23:00:00 26.8 6 Sur 12 Sudeste 0 -- -- 36
2019-07-29 22:00:00 28.2 7 Sur 19 Este 0 -- -- 34
2019-07-29 21:00:00 30.3 6 Sudeste 13 Sudeste 0 -- -- 29
2019-07-29 20:00:00 32 8 Este 15 Nordeste 0 -- -- 25
2019-07-29 19:00:00 32.3 12 Nordeste 19 Nordeste 0 -- -- 25
2019-07-29 18:00:00 32.3 8 Este 19 Nordeste 0 -- -- 25
2019-07-29 17:00:00 32.6 15 Nordeste 23 Nordeste 0 -- -- 25
2019-07-29 16:00:00 31.7 12 Nordeste 23 Nordeste 0 -- -- 25
2019-07-29 15:00:00 31 12 Nordeste 22 Nordeste 0 -- -- 26
2019-07-29 14:00:00 30.2 9 Sudeste 21 Este 0 -- -- 28
2019-07-29 13:00:00 28.3 6 Sudeste 15 Sudeste 0 -- -- 32
2019-07-29 12:00:00 26 8 Nordeste 13 Este 0 -- -- 37
2019-07-29 11:00:00 24.1 5 Este 10 Nordeste 0 -- -- 40
2019-07-29 10:00:00 21.2 4 Este 10 Este 0 -- -- 45
2019-07-29 09:00:00 19.4 5 Nordeste 9 Nordeste 0 -- -- 49
2019-07-29 08:00:00 18.1 0 Calma 7 Sudoeste 0 -- -- 50
2019-07-29 07:00:00 15.5 3 Oeste 6 Sudoeste 0 -- -- 57
2019-07-29 06:00:00 15.8 5 Sudoeste 7 Sudoeste 0 -- -- 58
2019-07-29 05:00:00 16.2 2 Sudoeste 5 Sudeste 0 -- -- 60
2019-07-29 04:00:00 16.8 3 Sudeste 14 Nordeste 0 -- -- 58
2019-07-29 03:00:00 17.8 12 Norte 21 Oeste 0 -- -- 51
2019-07-29 02:00:00 22 17 Oeste 29 Oeste 0 -- -- 30
2019-07-29 01:00:00 21.4 18 Oeste 33 Oeste 0 -- -- 39
2019-07-29 00:00:00 21.5 12 Sudoeste 24 Oeste 0 -- -- 38
2019-07-28 23:00:00 22.1 17 Oeste 25 Oeste 0 -- -- 39
2019-07-28 22:00:00 22.4 10 Oeste 19 Noroeste 0 -- -- 39
2019-07-28 21:00:00 24.2 14 Noroeste 32 Noroeste 0 -- -- 38
2019-07-28 20:00:00 26.1 24 Noroeste 40 Noroeste 0 -- -- 33
2019-07-28 19:00:00 27 28 Noroeste 42 Noroeste 0 -- -- 30
2019-07-28 18:00:00 27 26 Noroeste 46 Noroeste 0 -- -- 31
2019-07-28 17:00:00 26.9 28 Noroeste 44 Noroeste 0 -- -- 33
2019-07-28 16:00:00 26.7 30 Noroeste 50 Oeste 0 -- -- 33
2019-07-28 15:00:00 26.2 29 Noroeste 46 Noroeste 0 -- -- 33
2019-07-28 14:00:00 25.6 25 Noroeste 41 Noroeste 0 -- -- 34
2019-07-28 13:00:00 24.2 20 Noroeste 40 Noroeste 0 -- -- 39
2019-07-28 12:00:00 22.5 30 Noroeste 47 Noroeste 0 -- -- 44
2019-07-28 11:00:00 21.2 29 Noroeste 46 Noroeste 0 -- -- 46
2019-07-28 10:00:00 19.4 29 Noroeste 44 Noroeste 0 -- -- 52
2019-07-28 09:00:00 17.3 32 Noroeste 43 Noroeste 0 -- -- 63
2019-07-28 08:00:00 15.5 23 Noroeste 39 Noroeste 0 -- -- 70
2019-07-28 07:00:00 14.9 23 Noroeste 49 Noroeste 0 -- -- 71
2019-07-28 06:00:00 15.1 32 Noroeste 54 Noroeste 0 -- -- 70
2019-07-28 05:00:00 15.6 34 Noroeste 59 Noroeste 0 -- -- 67
2019-07-28 04:00:00 15.3 39 Noroeste 58 Noroeste 0 -- -- 68
2019-07-28 03:00:00 15.7 43 Noroeste 60 Noroeste 0 -- -- 67
2019-07-28 02:00:00 16.1 35 Noroeste 57 Noroeste 0 -- -- 65
2019-07-28 01:00:00 16.4 41 Noroeste 57 Noroeste 0 -- -- 61
2019-07-28 00:00:00 17.1 39 Noroeste 63 Noroeste 0 -- -- 61
2019-07-27 23:00:00 17.6 41 Noroeste 59 Noroeste 0 -- -- 63
2019-07-26 12:00:00 -- -- -- -- -- -- -- -- --
2019-07-26 11:00:00 23.4 3 Norte 13 Nordeste 0 -- -- 60
2019-07-26 10:00:00 23.7 6 Noroeste 17 Oeste 0 -- -- 57
2019-07-26 09:00:00 23 11 Nordeste 21 Nordeste 0 -- -- 56
2019-07-26 08:00:00 23.2 3 Sur 8 Este 0 -- -- 55
2019-07-26 07:00:00 21.7 6 Noroeste 12 Noroeste 0 -- -- 58
2019-07-26 06:00:00 21.9 5 Noroeste 9 Sudeste 0 -- -- 59
2019-07-26 05:00:00 22.5 2 Nordeste 12 Este 0 -- -- 57
2019-07-26 04:00:00 22.9 5 Sudeste 17 Sudeste 0 -- -- 52
2019-07-26 03:00:00 23.1 10 Sudeste 24 Sudeste 0 -- -- 51
2019-07-26 02:00:00 23.6 13 Sudeste 25 Sudeste 0 -- -- 54
2019-07-26 01:00:00 24.4 9 Sur 15 Sudeste 0 -- -- 55
2019-07-26 00:00:00 25.2 8 Sudeste 23 Sudeste 0 -- -- 58
2019-07-25 23:00:00 27.2 12 Sudeste 23 Sudeste 0 -- -- 47
2019-07-25 22:00:00 28.2 13 Este 36 Sudoeste 0 -- -- 45
2019-07-25 21:00:00 30 8 Sur 26 Este 0 -- -- 32
2019-07-25 20:00:00 30.6 7 Sudeste 40 Sudoeste 0 -- -- 33
2019-07-25 19:00:00 28.2 29 Sudoeste 65 Sudoeste 0 -- -- 42
2019-07-25 18:00:00 35.6 21 Sudeste 34 Este 0 -- -- 27
2019-07-25 17:00:00 35.5 22 Este 35 Este 0 -- -- 26
2019-07-25 16:00:00 35 19 Este 28 Este 0 -- -- 28
2019-07-25 15:00:00 33.5 14 Este 28 Sudeste 0 -- -- 32
2019-07-25 14:00:00 32.2 12 Sudeste 21 Sudeste 0 -- -- 34
2019-07-25 13:00:00 30.4 11 Sudeste 21 Sudeste 0 -- -- 37
2019-07-25 12:00:00 28.7 11 Sudeste 20 Sudeste 0 -- -- 41
2019-07-25 11:00:00 26.7 13 Sudeste 23 Sudeste 0 -- -- 44
2019-07-25 10:00:00 25 12 Sudeste 20 Sudeste 0 -- -- 47
2019-07-25 09:00:00 23.7 5 Sur 8 Sudeste 0 -- -- 53
2019-07-25 08:00:00 21.4 4 Sudoeste 9 Sudeste 0 -- -- 62
2019-07-25 07:00:00 21.3 3 Sudoeste 11 Sudeste 0 -- -- 62
2019-07-25 06:00:00 21.5 3 Sudeste 8 Sudeste 0 -- -- 63
2019-07-25 05:00:00 22.2 4 Sur 13 Sudeste 0 -- -- 62
2019-07-25 04:00:00 22.7 8 Sudeste 14 Sudeste 0 -- -- 61
2019-07-25 03:00:00 23.1 5 Sur 14 Sudeste 0 -- -- 63
2019-07-25 02:00:00 23.8 8 Sudeste 18 Sudeste 0 -- -- 61
2019-07-25 01:00:00 24.6 9 Sudeste 17 Sudeste 0 -- -- 58
2019-07-25 00:00:00 25.7 8 Sudeste 20 Este 0 -- -- 54
2019-07-24 23:00:00 28.7 10 Este 18 Sur 0 -- -- 38
2019-07-24 22:00:00 30.6 13 Sudeste 23 Sudeste 0 -- -- 33
2019-07-24 21:00:00 33 17 Sur 32 Sudeste 0 -- -- 27
2019-07-24 20:00:00 34.8 15 Sudeste 28 Sudeste 0 -- -- 27
2019-07-24 19:00:00 36 17 Este 30 Sudeste 0 -- -- 28
2019-07-24 18:00:00 36.9 15 Este 27 Este 0 -- -- 23
2019-07-24 17:00:00 37.1 15 Este 26 Este 0 -- -- 22
2019-07-24 16:00:00 36.6 14 Este 23 Sudeste 0 -- -- 22
2019-07-24 15:00:00 35.1 11 Sudeste 19 Sudeste 0 -- -- 29
2019-07-24 14:00:00 34.1 9 Sudeste 19 Este 0 -- -- 31
2019-07-24 13:00:00 32.2 10 Sudeste 19 Sudeste 0 -- -- 33
2019-07-24 12:00:00 30.9 8 Sudeste 14 Sudeste 0 -- -- 32
2019-07-24 11:00:00 29.1 6 Este 13 Sudeste 0 -- -- 36
2019-07-24 10:00:00 27.6 6 Sudeste 14 Sudeste 0 -- -- 38
2019-07-24 09:00:00 25.6 4 Sudeste 6 Sudeste 0 -- -- 39
2019-07-24 08:00:00 23.8 3 Sur 7 Sudoeste 0 -- -- 43
2019-07-24 07:00:00 22.8 5 Sudoeste 12 Oeste 0 -- -- 43
2019-07-24 06:00:00 22.9 6 Sudoeste 12 Oeste 0 -- -- 44
2019-07-24 05:00:00 22.5 6 Sudoeste 10 Noroeste 0 -- -- 46
2019-07-24 04:00:00 22.7 8 Noroeste 14 Noroeste 0 -- -- 46
2019-07-24 03:00:00 23.6 2 Sur 10 Sudeste 0 -- -- 43
2019-07-24 02:00:00 24.9 3 Sudeste 18 Oeste 0 -- -- 41
2019-07-24 01:00:00 26.3 6 Este 21 Nordeste 0 -- -- 41
2019-07-24 00:00:00 27.2 9 Nordeste 23 Sudeste 0 -- -- 38
2019-07-23 23:00:00 30.4 16 Sur 27 Sudeste 0 -- -- 29
2019-07-23 22:00:00 30.5 9 Sudeste 26 Sudeste 0 -- -- 30
2019-07-23 21:00:00 33.2 18 Sudeste 36 Sudeste 0 -- -- 26
2019-07-23 20:00:00 35.8 23 Sudeste 37 Sudeste 0 -- -- 24
2019-07-23 19:00:00 37.1 18 Este 34 Este 0 -- -- 22
2019-07-23 18:00:00 37.3 18 Este 33 Este 0 -- -- 23
2019-07-23 17:00:00 37.3 19 Este 32 Este 0 -- -- 22
2019-07-23 16:00:00 37.3 13 Este 26 Sudeste 0 -- -- 19
2019-07-23 15:00:00 35.8 15 Sudeste 25 Este 0 -- -- 23
2019-07-23 14:00:00 35.3 12 Este 23 Sudeste 0 -- -- 23
2019-07-23 13:00:00 33.9 11 Este 19 Este 0 -- -- 24
2019-07-23 12:00:00 31.7 10 Sudeste 19 Este 0 -- -- 28
2019-07-23 11:00:00 30.4 9 Sudeste 14 Sudeste 0 -- -- 33
2019-07-23 10:00:00 28.8 4 Este 9 Este 0 -- -- 32
2019-07-23 09:00:00 26.5 4 Sudoeste 6 Oeste 0 -- -- 37
2019-07-23 08:00:00 23.5 5 Oeste 9 Oeste 0 -- -- 42
2019-07-23 07:00:00 22.2 5 Sudoeste 9 Sudoeste 0 -- -- 45
2019-07-23 06:00:00 22.7 6 Sudoeste 11 Sudoeste 0 -- -- 45
2019-07-23 05:00:00 22 8 Sudoeste 11 Sudoeste 0 -- -- 48
2019-07-23 04:00:00 21.9 6 Sudoeste 9 Sudoeste 0 -- -- 52
2019-07-23 03:00:00 22.7 0 Calma 6 Sur 0 -- -- 51
2019-07-23 02:00:00 24.2 6 Sur 9 Sudeste 0 -- -- 47
2019-07-23 01:00:00 24.8 5 Sur 17 Sudeste 0 -- -- 47
2019-07-23 00:00:00 25.6 6 Sudeste 18 Sudeste 0 -- -- 44
2019-07-22 23:00:00 27.1 11 Sudeste 23 Sudeste 0 -- -- 40
2019-07-22 22:00:00 29.8 8 Sudeste 22 Sudeste 0 -- -- 31
2019-07-22 21:00:00 32.3 12 Sudeste 32 Sudeste 0 -- -- 28
2019-07-22 20:00:00 34.8 18 Sudeste 33 Sudeste 0 -- -- 27
2019-07-22 19:00:00 35.6 15 Este 33 Este 0 -- -- 26
2019-07-22 18:00:00 35.9 20 Este 35 Este 0 -- -- 23
2019-07-22 17:00:00 36.5 18 Este 30 Este 0 -- -- 22
2019-07-22 16:00:00 35.8 17 Este 27 Este 0 -- -- 23
2019-07-22 15:00:00 35.3 14 Sudeste 27 Este 0 -- -- 23
2019-07-22 14:00:00 33.5 12 Sudeste 23 Sudeste 0 -- -- 25
2019-07-22 13:00:00 32.3 12 Sudeste 22 Sur 0 -- -- 27
2019-07-22 12:00:00 30.1 12 Sudeste 20 Este 0 -- -- 34
2019-07-22 11:00:00 27.9 9 Este 16 Sur 0 -- -- 40
2019-07-22 10:00:00 26.2 8 Sudeste 13 Sur 0 -- -- 44
2019-07-22 09:00:00 24.2 5 Sudeste 10 Sudeste 0 -- -- 50
2019-07-22 08:00:00 22.1 2 Este 5 Sudoeste 0 -- -- 56
2019-07-22 07:00:00 21.2 3 Sudoeste 5 Sur 0 -- -- 56
2019-07-22 06:00:00 21.4 2 Sudoeste 6 Sudeste 0 -- -- 56
2019-07-22 05:00:00 21.4 2 Oeste 9 Sudeste 0 -- -- 56
2019-07-22 04:00:00 22.7 6 Sudeste 10 Sudeste 0 -- -- 53
2019-07-22 03:00:00 22.8 3 Sur 10 Sudeste 0 -- -- 52
2019-07-22 02:00:00 23.1 5 Este 10 Noroeste 0 -- -- 51
2019-07-22 01:00:00 24.2 2 Este 12 Sudeste 0 -- -- 48
2019-07-22 00:00:00 25.2 4 Este 16 Este 0 -- -- 44
2019-07-21 23:00:00 26.3 7 Este 17 Sudeste 0 -- -- 41
2019-07-21 22:00:00 28 9 Sudeste 25 Sudeste 0 -- -- 36
2019-07-21 21:00:00 30.4 13 Sudeste 23 Sudeste 0 -- -- 33
2019-07-21 20:00:00 33 13 Sudeste 31 Sudeste 0 -- -- 30
2019-07-21 19:00:00 34.4 17 Sudeste 32 Este 0 -- -- 29
2019-07-21 18:00:00 34.6 18 Sudeste 31 Sudeste 0 -- -- 31
2019-07-21 17:00:00 34 17 Este 29 Este 0 -- -- 33
2019-07-21 16:00:00 33.2 12 Este 27 Sudeste 0 -- -- 36
2019-07-21 15:00:00 32.6 12 Sudeste 27 Sudeste 0 -- -- 36
2019-07-21 14:00:00 31.8 10 Este 23 Sudeste 0 -- -- 38
2019-07-21 13:00:00 30.1 16 Sur 24 Sur 0 -- -- 40
2019-07-21 12:00:00 28 13 Sudeste 21 Sudeste 0 -- -- 51
2019-07-21 11:00:00 26.2 11 Sudeste 19 Sur 0 -- -- 55
2019-07-21 10:00:00 24.6 6 Sudeste 13 Sudeste 0 -- -- 59
2019-07-21 09:00:00 23.2 5 Sudeste 10 Este 0 -- -- 59
2019-07-21 08:00:00 21.4 3 Sudoeste 6 Sudoeste 0 -- -- 63
2019-07-21 07:00:00 20.5 2 Sur 10 Sudeste 0 -- -- 64
2019-07-21 06:00:00 21.2 4 Sudeste 8 Sudeste 0 -- -- 62
2019-07-21 05:00:00 21.4 4 Sudoeste 10 Sur 0 -- -- 60
2019-07-21 04:00:00 22.1 6 Sur 13 Sudeste 0 -- -- 57
2019-07-21 03:00:00 22.8 4 Sur 11 Sudeste 0 -- -- 54
2019-07-21 02:00:00 23.1 6 Sudeste 18 Sudeste 0 -- -- 52
2019-07-21 01:00:00 23.4 13 Sudeste 21 Sudeste 0 -- -- 51
2019-07-21 00:00:00 23.9 10 Este 24 Este 0 -- -- 51
2019-07-20 23:00:00 25 14 Este 28 Sudeste 0 -- -- 51
2019-07-20 22:00:00 26.5 15 Sudeste 27 Sudeste 0 -- -- 52
2019-07-20 21:00:00 29.5 15 Sudeste 31 Sudeste 0 -- -- 48
2019-07-20 20:00:00 32.1 21 Sudeste 40 Sudeste 0 -- -- 39
2019-07-20 19:00:00 33.4 21 Sudeste 35 Sudeste 0 -- -- 37
2019-07-20 18:00:00 34.2 19 Este 36 Este 0 -- -- 31
2019-07-20 17:00:00 33.5 17 Este 31 Sudeste 0 -- -- 32
2019-07-20 16:00:00 32.7 14 Sudeste 26 Este 0 -- -- 33
2019-07-20 15:00:00 31 12 Sudeste 25 Sudeste 0 -- -- 40
2019-07-20 14:00:00 29.9 13 Este 24 Sudeste 0 -- -- 44
2019-07-20 13:00:00 28.2 12 Sudeste 24 Este 0 -- -- 50
2019-07-20 12:00:00 26.8 10 Sudeste 24 Este 0 -- -- 56
2019-07-20 11:00:00 25.2 11 Este 23 Sudeste 0 -- -- 62
2019-07-20 10:00:00 23.1 15 Sudeste 24 Sudeste 0 -- -- 67
2019-07-20 09:00:00 22 7 Sudeste 13 Sur 0 -- -- 69
2019-07-20 08:00:00 20.3 7 Sur 10 Sur 0 -- -- 72
2019-07-20 07:00:00 19.2 3 Norte 10 Sur 0 -- -- 74
2019-07-20 06:00:00 20.1 3 Sudoeste 10 Sudeste 0 -- -- 69
2019-07-20 05:00:00 20.5 4 Sur 15 Sudeste 0 -- -- 67
2019-07-20 04:00:00 20.9 5 Sudeste 13 Sudeste 0 -- -- 65
2019-07-20 03:00:00 21.3 6 Sudeste 21 Sudeste 0 -- -- 66
2019-07-20 02:00:00 21.7 10 Sudeste 27 Sudeste 0 -- -- 66
2019-07-20 01:00:00 22.3 9 Este 22 Sudeste 0 -- -- 59
2019-07-20 00:00:00 23.3 11 Sudeste 21 Sudeste 0 -- -- 55
2019-07-19 23:00:00 24.6 10 Sudeste 21 Sudeste 0 -- -- 57
2019-07-19 22:00:00 27.1 15 Sudeste 26 Sudeste 0 -- -- 47
2019-07-19 21:00:00 29.3 12 Sudeste 30 Sudeste 0 -- -- 43
2019-07-19 20:00:00 30.8 19 Sudeste 38 Sudeste 0 -- -- 39
2019-07-19 19:00:00 31.9 17 Este 30 Sudeste 0 -- -- 38
2019-07-19 18:00:00 31.9 16 Este 31 Este 0 -- -- 31
2019-07-19 17:00:00 31.8 14 Sudeste 28 Este 0 -- -- 31
2019-07-19 16:00:00 31.3 14 Sudeste 26 Este 0 -- -- 33
2019-07-19 15:00:00 30.3 14 Este 25 Sudeste 0 -- -- 33
2019-07-19 14:00:00 28.7 13 Sudeste 21 Sudeste 0 -- -- 39
2019-07-19 13:00:00 27.3 10 Sudeste 22 Este 0 -- -- 42
2019-07-19 12:00:00 25.9 11 Sudeste 21 Sur 0 -- -- 47
2019-07-19 11:00:00 24 6 Sudeste 13 Sur 0 -- -- 52
2019-07-19 10:00:00 21.7 4 Nordeste 10 Norte 0 -- -- 63
2019-07-19 09:00:00 20 6 Nordeste 13 Noroeste 0 -- -- 66
2019-07-19 08:00:00 18.5 11 Noroeste 14 Noroeste 0 -- -- 58
2019-07-19 07:00:00 16.1 5 Oeste 14 Noroeste 0 -- -- 64
2019-07-19 06:00:00 17 2 Sudoeste 10 Noroeste 0 -- -- 66
2019-07-19 05:00:00 18.1 7 Noroeste 10 Noroeste 0 -- -- 63
2019-07-19 04:00:00 19 8 Norte 10 Norte 0 -- -- 61
2019-07-19 03:00:00 20 10 Noroeste 21 Noroeste 0 -- -- 57
2019-07-19 02:00:00 21.5 15 Noroeste 26 Oeste 0 -- -- 51
2019-07-19 01:00:00 23.2 19 Oeste 31 Oeste 0 -- -- 46
2019-07-19 00:00:00 22.9 18 Noroeste 28 Noroeste 0 -- -- 48